Pagina principale
METAR-TAF:

METAR-TAF

Aeroporti :

Bloemfontein, Sudafrica

latitudine: 29-06S, longitudine: 026-18E, altezza: 1354 m

Osservazione

Il bollettino è stato emesso 43 minuti fa, alle 14:00 UTC
Vento 5 kt da nord, variando fra nord-ovest e est/nord-est
Temperature 28°C
Umidità 25%
Pressione 1019 hPa
Visibilità 10 km o più
nessuna nube inferiore a 1500 m e nessun cumulonembo

METAR: FABL 281400Z 36005KT 310V060 CAVOK 28/06 Q1019 NOSIG

Ora: 16:43 (14:43 UTC)

Previsione

Il bollettino è stato emesso 4 ore e 43 minuti fa, alle 10:00 UTC
Previsione valida dal 28 alle 12 UTC al 29 alle 12 UTC
Vento 3 kt da direzioni variabili
Visibilità 10 km o più
nessuna nube inferiore a 1500 m e nessun cumulonembo

TAF: FABL 281000Z 2812/2912 VRB03KT CAVOK TX30/2812Z TN12/2904Z

Osservazioni e previsioni meteorologiche di più di 4000 aeroporti (messaggi METAR e TAF).

Le stazioni disponibili sono rappresentate dai dischi gialli e rossi sulla carta.

Puntare il mouse per vedere il nome della stazione.

Clicca sopra per visualizzare le osservazioni e previsioni meteorologiche.

Per cambiare la mappa : fare clic sui pulsanti verdi con una croce nera per ingrandire, il pulsante verde con un trattino per diminuire, o sulla freccia verde per le mappe adiacenti.


METAR-TAF: